sensor_id;sensor_type;location;lat;lon;timestamp;temperature;humidity
1578;DHT22;57623;53.608;10.004;2022-09-01T00:00:28;14.80;99.90
1578;DHT22;57623;53.608;10.004;2022-09-01T00:03:41;14.80;99.90
1578;DHT22;57623;53.608;10.004;2022-09-01T00:06:45;14.80;99.90
1578;DHT22;57623;53.608;10.004;2022-09-01T00:10:16;14.70;99.90
1578;DHT22;57623;53.608;10.004;2022-09-01T00:13:37;14.70;99.90
1578;DHT22;57623;53.608;10.004;2022-09-01T00:16:48;14.70;99.90
1578;DHT22;57623;53.608;10.004;2022-09-01T00:20:18;14.60;99.90
1578;DHT22;57623;53.608;10.004;2022-09-01T00:23:26;14.50;99.90
1578;DHT22;57623;53.608;10.004;2022-09-01T00:26:43;14.50;99.90
1578;DHT22;57623;53.608;10.004;2022-09-01T00:29:52;14.50;99.90
1578;DHT22;57623;53.608;10.004;2022-09-01T00:32:51;14.40;99.90
1578;DHT22;57623;53.608;10.004;2022-09-01T00:42:38;14.40;99.90
1578;DHT22;57623;53.608;10.004;2022-09-01T00:46:05;14.40;99.90
1578;DHT22;57623;53.608;10.004;2022-09-01T00:49:43;14.30;99.90
1578;DHT22;57623;53.608;10.004;2022-09-01T00:52:47;14.30;99.90
1578;DHT22;57623;53.608;10.004;2022-09-01T00:55:59;14.30;99.90
1578;DHT22;57623;53.608;10.004;2022-09-01T00:59:15;14.20;99.90
1578;DHT22;57623;53.608;10.004;2022-09-01T01:02:57;14.20;99.90
1578;DHT22;57623;53.608;10.004;2022-09-01T01:06:09;14.20;99.90
1578;DHT22;57623;53.608;10.004;2022-09-01T01:09:41;14.10;99.90
1578;DHT22;57623;53.608;10.004;2022-09-01T01:12:41;14.10;99.90
1578;DHT22;57623;53.608;10.004;2022-09-01T01:15:54;14.00;99.90
1578;DHT22;57623;53.608;10.004;2022-09-01T01:18:52;14.00;99.90
1578;DHT22;57623;53.608;10.004;2022-09-01T01:21:52;14.00;99.90
1578;DHT22;57623;53.608;10.004;2022-09-01T01:25:27;14.00;99.90
1578;DHT22;57623;53.608;10.004;2022-09-01T01:28:32;14.00;99.90
1578;DHT22;57623;53.608;10.004;2022-09-01T01:31:47;14.00;99.90
1578;DHT22;57623;53.608;10.004;2022-09-01T01:35:05;13.90;99.90
1578;DHT22;57623;53.608;10.004;2022-09-01T01:38:16;13.90;99.90
1578;DHT22;57623;53.608;10.004;2022-09-01T01:41:29;13.80;99.90
1578;DHT22;57623;53.608;10.004;2022-09-01T01:44:41;13.80;99.90
1578;DHT22;57623;53.608;10.004;2022-09-01T01:47:52;13.80;99.90
1578;DHT22;57623;53.608;10.004;2022-09-01T01:51:04;13.80;99.90
1578;DHT22;57623;53.608;10.004;2022-09-01T01:54:06;13.70;99.90
1578;DHT22;57623;53.608;10.004;2022-09-01T01:57:28;13.70;99.90
1578;DHT22;57623;53.608;10.004;2022-09-01T02:00:29;13.70;99.90
1578;DHT22;57623;53.608;10.004;2022-09-01T02:03:31;13.60;99.90
1578;DHT22;57623;53.608;10.004;2022-09-01T02:06:39;13.60;99.90
1578;DHT22;57623;53.608;10.004;2022-09-01T02:09:36;13.50;99.90
1578;DHT22;57623;53.608;10.004;2022-09-01T02:12:44;13.50;99.90
1578;DHT22;57623;53.608;10.004;2022-09-01T02:15:48;13.50;99.90
1578;DHT22;57623;53.608;10.004;2022-09-01T02:18:54;13.50;99.90
1578;DHT22;57623;53.608;10.004;2022-09-01T02:22:07;13.40;99.90
1578;DHT22;57623;53.608;10.004;2022-09-01T02:25:26;13.50;99.90
1578;DHT22;57623;53.608;10.004;2022-09-01T02:28:50;13.40;99.90
1578;DHT22;57623;53.608;10.004;2022-09-01T02:32:08;13.40;99.90
1578;DHT22;57623;53.608;10.004;2022-09-01T02:35:23;13.40;99.90
1578;DHT22;57623;53.608;10.004;2022-09-01T02:38:27;13.40;99.90
1578;DHT22;57623;53.608;10.004;2022-09-01T02:41:24;13.30;99.90
1578;DHT22;57623;53.608;10.004;2022-09-01T02:44:37;13.30;99.90
1578;DHT22;57623;53.608;10.004;2022-09-01T02:47:40;13.20;99.90
1578;DHT22;57623;53.608;10.004;2022-09-01T02:50:49;13.20;99.90
1578;DHT22;57623;53.608;10.004;2022-09-01T02:53:45;13.20;99.90
1578;DHT22;57623;53.608;10.004;2022-09-01T02:57:21;13.20;99.90
1578;DHT22;57623;53.608;10.004;2022-09-01T03:04:30;13.10;99.90
1578;DHT22;57623;53.608;10.004;2022-09-01T03:07:33;13.10;99.90
1578;DHT22;57623;53.608;10.004;2022-09-01T03:10:54;13.10;99.90
1578;DHT22;57623;53.608;10.004;2022-09-01T03:14:05;13.00;99.90
1578;DHT22;57623;53.608;10.004;2022-09-01T03:17:14;13.00;99.90
1578;DHT22;57623;53.608;10.004;2022-09-01T03:20:14;13.00;99.90
1578;DHT22;57623;53.608;10.004;2022-09-01T03:23:21;12.90;99.90
1578;DHT22;57623;53.608;10.004;2022-09-01T03:26:38;12.90;99.90
1578;DHT22;57623;53.608;10.004;2022-09-01T03:29:48;12.90;99.90
1578;DHT22;57623;53.608;10.004;2022-09-01T03:32:51;12.90;99.90
1578;DHT22;57623;53.608;10.004;2022-09-01T03:36:09;12.80;99.90
1578;DHT22;57623;53.608;10.004;2022-09-01T03:39:25;12.80;99.90
1578;DHT22;57623;53.608;10.004;2022-09-01T03:42:32;12.80;99.90
1578;DHT22;57623;53.608;10.004;2022-09-01T03:45:51;12.70;99.90
1578;DHT22;57623;53.608;10.004;2022-09-01T03:49:06;12.70;99.90
1578;DHT22;57623;53.608;10.004;2022-09-01T03:52:22;12.70;99.90
1578;DHT22;57623;53.608;10.004;2022-09-01T03:55:35;12.70;99.90
1578;DHT22;57623;53.608;10.004;2022-09-01T03:58:39;12.70;99.90
1578;DHT22;57623;53.608;10.004;2022-09-01T04:01:45;12.60;99.90
1578;DHT22;57623;53.608;10.004;2022-09-01T04:04:42;12.60;99.90
1578;DHT22;57623;53.608;10.004;2022-09-01T04:07:46;12.60;99.90
1578;DHT22;57623;53.608;10.004;2022-09-01T04:10:53;12.50;99.90
1578;DHT22;57623;53.608;10.004;2022-09-01T04:14:03;12.50;99.90
1578;DHT22;57623;53.608;10.004;2022-09-01T04:17:05;12.50;99.90
1578;DHT22;57623;53.608;10.004;2022-09-01T04:20:22;12.40;99.90
1578;DHT22;57623;53.608;10.004;2022-09-01T04:23:30;12.40;99.90
1578;DHT22;57623;53.608;10.004;2022-09-01T04:26:40;12.40;99.90
1578;DHT22;57623;53.608;10.004;2022-09-01T04:29:44;12.40;99.90
1578;DHT22;57623;53.608;10.004;2022-09-01T04:32:48;12.40;99.90
1578;DHT22;57623;53.608;10.004;2022-09-01T04:36:21;12.40;99.90
1578;DHT22;57623;53.608;10.004;2022-09-01T04:39:36;12.30;99.90
1578;DHT22;57623;53.608;10.004;2022-09-01T04:42:32;12.30;99.90
1578;DHT22;57623;53.608;10.004;2022-09-01T04:45:34;12.30;99.90
1578;DHT22;57623;53.608;10.004;2022-09-01T04:48:55;12.30;99.90
1578;DHT22;57623;53.608;10.004;2022-09-01T04:51:56;12.30;99.90
1578;DHT22;57623;53.608;10.004;2022-09-01T04:55:11;12.20;99.90
1578;DHT22;57623;53.608;10.004;2022-09-01T04:58:23;12.30;99.90
1578;DHT22;57623;53.608;10.004;2022-09-01T05:01:23;12.20;99.90
1578;DHT22;57623;53.608;10.004;2022-09-01T05:04:38;12.20;99.90
1578;DHT22;57623;53.608;10.004;2022-09-01T05:07:43;12.30;99.90
1578;DHT22;57623;53.608;10.004;2022-09-01T05:14:19;12.30;99.90
1578;DHT22;57623;53.608;10.004;2022-09-01T05:17:23;12.30;99.90
1578;DHT22;57623;53.608;10.004;2022-09-01T05:20:39;12.40;99.90
1578;DHT22;57623;53.608;10.004;2022-09-01T05:23:39;12.40;99.90
1578;DHT22;57623;53.608;10.004;2022-09-01T05:27:07;12.50;99.90
1578;DHT22;57623;53.608;10.004;2022-09-01T05:30:18;12.50;99.90
1578;DHT22;57623;53.608;10.004;2022-09-01T05:33:13;12.40;99.90
1578;DHT22;57623;53.608;10.004;2022-09-01T05:36:15;12.50;99.90
1578;DHT22;57623;53.608;10.004;2022-09-01T05:39:31;12.50;99.90
1578;DHT22;57623;53.608;10.004;2022-09-01T05:42:33;12.50;99.90
1578;DHT22;57623;53.608;10.004;2022-09-01T05:45:38;12.60;99.90
1578;DHT22;57623;53.608;10.004;2022-09-01T05:49:04;12.60;99.90
1578;DHT22;57623;53.608;10.004;2022-09-01T05:52:12;12.60;99.90
1578;DHT22;57623;53.608;10.004;2022-09-01T05:55:16;12.70;99.90
1578;DHT22;57623;53.608;10.004;2022-09-01T05:58:29;12.70;99.90
1578;DHT22;57623;53.608;10.004;2022-09-01T06:01:41;12.80;99.90
1578;DHT22;57623;53.608;10.004;2022-09-01T06:04:36;12.90;99.90
1578;DHT22;57623;53.608;10.004;2022-09-01T06:07:30;12.90;99.90
1578;DHT22;57623;53.608;10.004;2022-09-01T06:10:26;13.00;99.90
1578;DHT22;57623;53.608;10.004;2022-09-01T06:13:18;13.10;99.90
1578;DHT22;57623;53.608;10.004;2022-09-01T06:16:13;13.10;99.90
1578;DHT22;57623;53.608;10.004;2022-09-01T06:19:08;13.20;99.90
1578;DHT22;57623;53.608;10.004;2022-09-01T06:22:03;13.30;99.90
1578;DHT22;57623;53.608;10.004;2022-09-01T06:24:55;13.40;99.90
1578;DHT22;57623;53.608;10.004;2022-09-01T06:27:48;13.50;99.90
1578;DHT22;57623;53.608;10.004;2022-09-01T06:30:41;13.50;99.90
1578;DHT22;57623;53.608;10.004;2022-09-01T06:33:33;13.60;99.90
1578;DHT22;57623;53.608;10.004;2022-09-01T06:36:29;13.70;99.90
1578;DHT22;57623;53.608;10.004;2022-09-01T06:39:21;13.80;99.90
1578;DHT22;57623;53.608;10.004;2022-09-01T06:42:17;13.90;99.90
1578;DHT22;57623;53.608;10.004;2022-09-01T06:45:07;14.00;99.90
1578;DHT22;57623;53.608;10.004;2022-09-01T06:48:01;14.00;99.90
1578;DHT22;57623;53.608;10.004;2022-09-01T06:50:51;14.10;99.90
1578;DHT22;57623;53.608;10.004;2022-09-01T06:54:02;14.20;99.90
1578;DHT22;57623;53.608;10.004;2022-09-01T06:57:03;14.30;99.90
1578;DHT22;57623;53.608;10.004;2022-09-01T07:00:20;14.40;99.90
1578;DHT22;57623;53.608;10.004;2022-09-01T07:03:13;14.50;99.90
1578;DHT22;57623;53.608;10.004;2022-09-01T07:06:05;14.60;99.90
1578;DHT22;57623;53.608;10.004;2022-09-01T07:09:18;14.70;99.90
1578;DHT22;57623;53.608;10.004;2022-09-01T07:12:29;14.80;99.90
1578;DHT22;57623;53.608;10.004;2022-09-01T07:15:20;14.90;99.90
1578;DHT22;57623;53.608;10.004;2022-09-01T07:18:29;15.00;99.90
1578;DHT22;57623;53.608;10.004;2022-09-01T07:21:23;15.10;99.90
1578;DHT22;57623;53.608;10.004;2022-09-01T07:24:35;15.20;99.90
1578;DHT22;57623;53.608;10.004;2022-09-01T07:27:27;15.30;99.90
1578;DHT22;57623;53.608;10.004;2022-09-01T07:30:40;15.40;99.90
1578;DHT22;57623;53.608;10.004;2022-09-01T07:33:32;15.50;99.90
1578;DHT22;57623;53.608;10.004;2022-09-01T07:36:30;15.60;99.90
1578;DHT22;57623;53.608;10.004;2022-09-01T07:39:41;15.80;99.90
1578;DHT22;57623;53.608;10.004;2022-09-01T07:42:35;15.90;99.90
1578;DHT22;57623;53.608;10.004;2022-09-01T07:45:50;16.00;99.90
1578;DHT22;57623;53.608;10.004;2022-09-01T07:48:46;16.20;99.90
1578;DHT22;57623;53.608;10.004;2022-09-01T07:51:58;16.20;99.90
1578;DHT22;57623;53.608;10.004;2022-09-01T07:54:49;16.30;99.90
1578;DHT22;57623;53.608;10.004;2022-09-01T07:57:41;16.40;99.90
1578;DHT22;57623;53.608;10.004;2022-09-01T08:00:34;16.60;99.90
1578;DHT22;57623;53.608;10.004;2022-09-01T08:03:25;16.60;99.90
1578;DHT22;57623;53.608;10.004;2022-09-01T08:06:18;16.80;99.90
1578;DHT22;57623;53.608;10.004;2022-09-01T08:09:16;16.80;99.90
1578;DHT22;57623;53.608;10.004;2022-09-01T08:12:18;16.90;99.90
1578;DHT22;57623;53.608;10.004;2022-09-01T08:15:15;17.00;99.90
1578;DHT22;57623;53.608;10.004;2022-09-01T08:18:30;17.10;99.90
1578;DHT22;57623;53.608;10.004;2022-09-01T08:21:38;17.20;99.90
1578;DHT22;57623;53.608;10.004;2022-09-01T08:24:31;17.30;99.90
1578;DHT22;57623;53.608;10.004;2022-09-01T08:27:20;17.40;99.90
1578;DHT22;57623;53.608;10.004;2022-09-01T08:30:10;17.50;99.90
1578;DHT22;57623;53.608;10.004;2022-09-01T08:33:03;17.60;99.90
1578;DHT22;57623;53.608;10.004;2022-09-01T08:35:57;17.70;99.90
1578;DHT22;57623;53.608;10.004;2022-09-01T08:38:46;17.80;99.90
1578;DHT22;57623;53.608;10.004;2022-09-01T08:41:44;17.90;99.90
1578;DHT22;57623;53.608;10.004;2022-09-01T08:44:42;18.00;99.90
1578;DHT22;57623;53.608;10.004;2022-09-01T08:47:32;18.10;99.90
1578;DHT22;57623;53.608;10.004;2022-09-01T08:50:41;18.20;99.90
1578;DHT22;57623;53.608;10.004;2022-09-01T08:53:45;18.20;99.90
1578;DHT22;57623;53.608;10.004;2022-09-01T08:56:37;18.30;99.90
1578;DHT22;57623;53.608;10.004;2022-09-01T08:59:30;18.40;99.90
1578;DHT22;57623;53.608;10.004;2022-09-01T09:02:40;18.50;99.90
1578;DHT22;57623;53.608;10.004;2022-09-01T09:05:37;18.60;99.90
1578;DHT22;57623;53.608;10.004;2022-09-01T09:08:44;18.70;99.90
1578;DHT22;57623;53.608;10.004;2022-09-01T09:11:48;18.70;99.90
1578;DHT22;57623;53.608;10.004;2022-09-01T09:14:49;18.80;99.90
1578;DHT22;57623;53.608;10.004;2022-09-01T09:17:47;18.90;99.90
1578;DHT22;57623;53.608;10.004;2022-09-01T09:20:48;18.90;99.90
1578;DHT22;57623;53.608;10.004;2022-09-01T09:23:45;19.00;99.90
1578;DHT22;57623;53.608;10.004;2022-09-01T09:26:34;19.10;99.90
1578;DHT22;57623;53.608;10.004;2022-09-01T09:29:30;19.20;99.90
1578;DHT22;57623;53.608;10.004;2022-09-01T09:32:24;19.30;99.90
1578;DHT22;57623;53.608;10.004;2022-09-01T09:35:50;19.40;99.90
1578;DHT22;57623;53.608;10.004;2022-09-01T09:38:40;19.40;99.90
1578;DHT22;57623;53.608;10.004;2022-09-01T09:41:31;19.50;99.90
1578;DHT22;57623;53.608;10.004;2022-09-01T09:44:29;19.50;99.90
1578;DHT22;57623;53.608;10.004;2022-09-01T09:47:36;19.60;99.90
1578;DHT22;57623;53.608;10.004;2022-09-01T09:50:32;19.60;99.90
1578;DHT22;57623;53.608;10.004;2022-09-01T09:53:27;19.70;99.90
1578;DHT22;57623;53.608;10.004;2022-09-01T09:56:38;19.80;99.90
1578;DHT22;57623;53.608;10.004;2022-09-01T09:59:32;19.90;99.90
1578;DHT22;57623;53.608;10.004;2022-09-01T10:02:51;20.00;99.90
1578;DHT22;57623;53.608;10.004;2022-09-01T10:05:44;20.10;99.90
1578;DHT22;57623;53.608;10.004;2022-09-01T10:08:41;20.10;99.90
1578;DHT22;57623;53.608;10.004;2022-09-01T10:11:37;20.20;99.90
1578;DHT22;57623;53.608;10.004;2022-09-01T10:14:30;20.20;99.90
1578;DHT22;57623;53.608;10.004;2022-09-01T10:17:43;20.30;99.90
1578;DHT22;57623;53.608;10.004;2022-09-01T10:20:37;20.50;99.90
1578;DHT22;57623;53.608;10.004;2022-09-01T10:23:28;20.50;99.90
1578;DHT22;57623;53.608;10.004;2022-09-01T10:26:23;20.60;99.90
1578;DHT22;57623;53.608;10.004;2022-09-01T10:29:18;20.70;99.90
1578;DHT22;57623;53.608;10.004;2022-09-01T10:32:15;20.80;99.90
1578;DHT22;57623;53.608;10.004;2022-09-01T10:35:26;20.90;99.90
1578;DHT22;57623;53.608;10.004;2022-09-01T10:38:21;21.00;99.90
1578;DHT22;57623;53.608;10.004;2022-09-01T10:41:48;21.10;99.90
1578;DHT22;57623;53.608;10.004;2022-09-01T10:44:57;21.10;99.90
1578;DHT22;57623;53.608;10.004;2022-09-01T10:47:48;21.30;99.90
1578;DHT22;57623;53.608;10.004;2022-09-01T10:50:38;21.40;99.90
1578;DHT22;57623;53.608;10.004;2022-09-01T10:53:48;21.50;99.90
1578;DHT22;57623;53.608;10.004;2022-09-01T10:56:43;21.50;99.90
1578;DHT22;57623;53.608;10.004;2022-09-01T10:59:37;21.60;99.90
1578;DHT22;57623;53.608;10.004;2022-09-01T11:02:41;21.60;99.90
1578;DHT22;57623;53.608;10.004;2022-09-01T11:05:59;21.50;99.90
1578;DHT22;57623;53.608;10.004;2022-09-01T11:09:07;21.50;99.90
1578;DHT22;57623;53.608;10.004;2022-09-01T11:12:27;21.50;99.90
1578;DHT22;57623;53.608;10.004;2022-09-01T11:15:37;21.50;99.90
1578;DHT22;57623;53.608;10.004;2022-09-01T11:18:34;21.50;99.90
1578;DHT22;57623;53.608;10.004;2022-09-01T11:21:27;21.50;99.90
1578;DHT22;57623;53.608;10.004;2022-09-01T11:24:46;21.60;99.90
1578;DHT22;57623;53.608;10.004;2022-09-01T11:27:59;21.80;99.90
1578;DHT22;57623;53.608;10.004;2022-09-01T11:30:55;21.90;99.90
1578;DHT22;57623;53.608;10.004;2022-09-01T11:33:55;22.10;99.90
1578;DHT22;57623;53.608;10.004;2022-09-01T11:36:58;22.10;99.90
1578;DHT22;57623;53.608;10.004;2022-09-01T11:39:54;22.20;99.90
1578;DHT22;57623;53.608;10.004;2022-09-01T11:42:45;22.20;99.90
1578;DHT22;57623;53.608;10.004;2022-09-01T11:45:39;22.30;99.90
1578;DHT22;57623;53.608;10.004;2022-09-01T11:48:36;22.40;99.90
1578;DHT22;57623;53.608;10.004;2022-09-01T11:51:43;22.60;99.90
1578;DHT22;57623;53.608;10.004;2022-09-01T11:54:44;22.80;99.90
1578;DHT22;57623;53.608;10.004;2022-09-01T11:57:37;22.80;99.90
1578;DHT22;57623;53.608;10.004;2022-09-01T12:00:30;22.80;99.90
1578;DHT22;57623;53.608;10.004;2022-09-01T12:03:20;22.80;99.90
1578;DHT22;57623;53.608;10.004;2022-09-01T12:06:19;22.80;99.90
1578;DHT22;57623;53.608;10.004;2022-09-01T12:09:08;22.80;99.90
1578;DHT22;57623;53.608;10.004;2022-09-01T12:12:01;22.60;99.90
1578;DHT22;57623;53.608;10.004;2022-09-01T12:14:55;22.60;99.90
1578;DHT22;57623;53.608;10.004;2022-09-01T12:17:55;22.50;99.90
1578;DHT22;57623;53.608;10.004;2022-09-01T12:20:57;22.60;99.90
1578;DHT22;57623;53.608;10.004;2022-09-01T12:23:51;22.70;99.90
1578;DHT22;57623;53.608;10.004;2022-09-01T12:26:40;22.70;99.90
1578;DHT22;57623;53.608;10.004;2022-09-01T12:29:36;22.70;99.90
1578;DHT22;57623;53.608;10.004;2022-09-01T12:32:25;22.60;99.90
1578;DHT22;57623;53.608;10.004;2022-09-01T12:35:16;22.70;99.90
1578;DHT22;57623;53.608;10.004;2022-09-01T12:38:27;22.70;99.90
1578;DHT22;57623;53.608;10.004;2022-09-01T12:41:30;22.70;99.90
1578;DHT22;57623;53.608;10.004;2022-09-01T12:44:27;22.70;99.90
1578;DHT22;57623;53.608;10.004;2022-09-01T12:50:44;22.50;99.90
1578;DHT22;57623;53.608;10.004;2022-09-01T12:53:50;22.40;99.90
1578;DHT22;57623;53.608;10.004;2022-09-01T12:56:43;22.30;99.90
1578;DHT22;57623;53.608;10.004;2022-09-01T12:59:34;22.30;99.90
1578;DHT22;57623;53.608;10.004;2022-09-01T13:02:28;22.40;99.90
1578;DHT22;57623;53.608;10.004;2022-09-01T13:05:28;22.50;99.90
1578;DHT22;57623;53.608;10.004;2022-09-01T13:08:26;22.50;99.90
1578;DHT22;57623;53.608;10.004;2022-09-01T13:11:21;22.50;99.90
1578;DHT22;57623;53.608;10.004;2022-09-01T13:14:09;22.60;99.90
1578;DHT22;57623;53.608;10.004;2022-09-01T13:17:00;22.60;99.90
1578;DHT22;57623;53.608;10.004;2022-09-01T13:19:50;22.60;99.90
1578;DHT22;57623;53.608;10.004;2022-09-01T13:22:40;22.50;99.90
1578;DHT22;57623;53.608;10.004;2022-09-01T13:25:33;22.50;99.90
1578;DHT22;57623;53.608;10.004;2022-09-01T13:28:25;22.50;99.90
1578;DHT22;57623;53.608;10.004;2022-09-01T13:31:15;22.40;99.90
1578;DHT22;57623;53.608;10.004;2022-09-01T13:34:22;22.40;99.90
1578;DHT22;57623;53.608;10.004;2022-09-01T13:37:11;22.30;99.90
1578;DHT22;57623;53.608;10.004;2022-09-01T13:39:59;22.30;99.90
1578;DHT22;57623;53.608;10.004;2022-09-01T13:42:52;22.30;99.90
1578;DHT22;57623;53.608;10.004;2022-09-01T13:45:49;22.30;99.90
1578;DHT22;57623;53.608;10.004;2022-09-01T13:48:40;22.30;99.90
1578;DHT22;57623;53.608;10.004;2022-09-01T13:51:50;22.30;99.90
1578;DHT22;57623;53.608;10.004;2022-09-01T13:54:39;22.40;99.90
1578;DHT22;57623;53.608;10.004;2022-09-01T13:57:31;22.50;99.90
1578;DHT22;57623;53.608;10.004;2022-09-01T14:00:27;22.80;99.90
1578;DHT22;57623;53.608;10.004;2022-09-01T14:03:22;23.10;99.90
1578;DHT22;57623;53.608;10.004;2022-09-01T14:06:14;23.50;99.90
1578;DHT22;57623;53.608;10.004;2022-09-01T14:09:02;23.70;99.90
1578;DHT22;57623;53.608;10.004;2022-09-01T14:11:52;23.70;99.90
1578;DHT22;57623;53.608;10.004;2022-09-01T14:14:47;23.60;99.90
1578;DHT22;57623;53.608;10.004;2022-09-01T14:17:59;23.50;99.90
1578;DHT22;57623;53.608;10.004;2022-09-01T14:20:49;23.40;99.90
1578;DHT22;57623;53.608;10.004;2022-09-01T14:23:42;23.40;99.90
1578;DHT22;57623;53.608;10.004;2022-09-01T14:26:31;23.40;99.90
1578;DHT22;57623;53.608;10.004;2022-09-01T14:29:21;23.40;99.90
1578;DHT22;57623;53.608;10.004;2022-09-01T14:32:13;23.40;99.90
1578;DHT22;57623;53.608;10.004;2022-09-01T14:35:05;23.50;99.90
1578;DHT22;57623;53.608;10.004;2022-09-01T14:37:54;23.50;99.90
1578;DHT22;57623;53.608;10.004;2022-09-01T14:40:46;23.40;99.90
1578;DHT22;57623;53.608;10.004;2022-09-01T14:43:36;23.30;99.90
1578;DHT22;57623;53.608;10.004;2022-09-01T14:46:30;23.20;99.90
1578;DHT22;57623;53.608;10.004;2022-09-01T14:49:23;23.10;99.90
1578;DHT22;57623;53.608;10.004;2022-09-01T14:52:14;23.00;99.90
1578;DHT22;57623;53.608;10.004;2022-09-01T14:55:05;22.90;99.90
1578;DHT22;57623;53.608;10.004;2022-09-01T14:57:54;22.80;99.90
1578;DHT22;57623;53.608;10.004;2022-09-01T15:00:43;22.70;99.90
1578;DHT22;57623;53.608;10.004;2022-09-01T15:03:37;22.90;99.90
1578;DHT22;57623;53.608;10.004;2022-09-01T15:06:34;23.10;99.90
1578;DHT22;57623;53.608;10.004;2022-09-01T15:09:27;23.10;99.90
1578;DHT22;57623;53.608;10.004;2022-09-01T15:12:16;23.20;99.90
1578;DHT22;57623;53.608;10.004;2022-09-01T15:15:10;23.20;99.90
1578;DHT22;57623;53.608;10.004;2022-09-01T15:18:07;23.20;99.90
1578;DHT22;57623;53.608;10.004;2022-09-01T15:20:58;23.10;99.90
1578;DHT22;57623;53.608;10.004;2022-09-01T15:23:48;23.10;99.90
1578;DHT22;57623;53.608;10.004;2022-09-01T15:26:41;23.10;99.90
1578;DHT22;57623;53.608;10.004;2022-09-01T15:29:32;23.00;99.90
1578;DHT22;57623;53.608;10.004;2022-09-01T15:32:28;23.00;99.90
1578;DHT22;57623;53.608;10.004;2022-09-01T15:35:20;22.80;99.90
1578;DHT22;57623;53.608;10.004;2022-09-01T15:38:10;22.80;99.90
1578;DHT22;57623;53.608;10.004;2022-09-01T15:41:05;22.70;99.90
1578;DHT22;57623;53.608;10.004;2022-09-01T15:44:03;22.60;99.90
1578;DHT22;57623;53.608;10.004;2022-09-01T15:46:57;22.50;99.90
1578;DHT22;57623;53.608;10.004;2022-09-01T15:49:51;22.40;99.90
1578;DHT22;57623;53.608;10.004;2022-09-01T15:52:49;22.30;99.90
1578;DHT22;57623;53.608;10.004;2022-09-01T15:55:46;22.20;99.90
1578;DHT22;57623;53.608;10.004;2022-09-01T15:58:36;22.20;99.90
1578;DHT22;57623;53.608;10.004;2022-09-01T16:01:46;22.20;99.90
1578;DHT22;57623;53.608;10.004;2022-09-01T16:04:36;22.10;99.90
1578;DHT22;57623;53.608;10.004;2022-09-01T16:07:25;22.10;99.90
1578;DHT22;57623;53.608;10.004;2022-09-01T16:10:20;22.00;99.90
1578;DHT22;57623;53.608;10.004;2022-09-01T16:13:08;22.00;99.90
1578;DHT22;57623;53.608;10.004;2022-09-01T16:16:07;22.00;99.90
1578;DHT22;57623;53.608;10.004;2022-09-01T16:19:06;22.00;99.90
1578;DHT22;57623;53.608;10.004;2022-09-01T16:36:27;22.00;99.90
1578;DHT22;57623;53.608;10.004;2022-09-01T16:39:32;21.70;99.90
1578;DHT22;57623;53.608;10.004;2022-09-01T16:42:27;21.70;99.90
1578;DHT22;57623;53.608;10.004;2022-09-01T16:45:32;21.70;99.90
1578;DHT22;57623;53.608;10.004;2022-09-01T16:48:33;21.60;99.90
1578;DHT22;57623;53.608;10.004;2022-09-01T16:51:31;21.60;99.90
1578;DHT22;57623;53.608;10.004;2022-09-01T16:54:29;21.60;99.90
1578;DHT22;57623;53.608;10.004;2022-09-01T16:57:32;21.50;99.90
1578;DHT22;57623;53.608;10.004;2022-09-01T17:00:37;21.50;99.90
1578;DHT22;57623;53.608;10.004;2022-09-01T17:03:33;21.40;99.90
1578;DHT22;57623;53.608;10.004;2022-09-01T17:06:36;21.40;99.90
1578;DHT22;57623;53.608;10.004;2022-09-01T17:09:33;21.40;99.90
1578;DHT22;57623;53.608;10.004;2022-09-01T17:12:28;21.30;99.90
1578;DHT22;57623;53.608;10.004;2022-09-01T17:15:30;21.30;99.90
1578;DHT22;57623;53.608;10.004;2022-09-01T17:18:38;21.20;99.90
1578;DHT22;57623;53.608;10.004;2022-09-01T17:21:36;21.10;99.90
1578;DHT22;57623;53.608;10.004;2022-09-01T17:24:35;21.00;99.90
1578;DHT22;57623;53.608;10.004;2022-09-01T17:27:28;20.90;99.90
1578;DHT22;57623;53.608;10.004;2022-09-01T17:30:23;20.80;99.90
1578;DHT22;57623;53.608;10.004;2022-09-01T17:33:18;20.80;99.90
1578;DHT22;57623;53.608;10.004;2022-09-01T17:36:18;20.70;99.90
1578;DHT22;57623;53.608;10.004;2022-09-01T17:39:23;20.60;99.90
1578;DHT22;57623;53.608;10.004;2022-09-01T17:42:22;20.60;99.90
1578;DHT22;57623;53.608;10.004;2022-09-01T17:45:23;20.50;99.90
1578;DHT22;57623;53.608;10.004;2022-09-01T17:48:18;20.40;99.90
1578;DHT22;57623;53.608;10.004;2022-09-01T17:51:14;20.30;99.90
1578;DHT22;57623;53.608;10.004;2022-09-01T17:54:17;20.20;99.90
1578;DHT22;57623;53.608;10.004;2022-09-01T17:57:16;20.20;99.90
1578;DHT22;57623;53.608;10.004;2022-09-01T18:00:19;20.10;99.90
1578;DHT22;57623;53.608;10.004;2022-09-01T18:03:19;20.00;99.90
1578;DHT22;57623;53.608;10.004;2022-09-01T18:06:21;20.00;99.90
1578;DHT22;57623;53.608;10.004;2022-09-01T18:09:16;19.90;99.90
1578;DHT22;57623;53.608;10.004;2022-09-01T18:12:08;19.80;99.90
1578;DHT22;57623;53.608;10.004;2022-09-01T18:15:06;19.70;99.90
1578;DHT22;57623;53.608;10.004;2022-09-01T18:18:08;19.60;99.90
1578;DHT22;57623;53.608;10.004;2022-09-01T18:21:08;19.60;99.90
1578;DHT22;57623;53.608;10.004;2022-09-01T18:24:05;19.50;99.90
1578;DHT22;57623;53.608;10.004;2022-09-01T18:27:00;19.40;99.90
1578;DHT22;57623;53.608;10.004;2022-09-01T18:29:50;19.40;99.90
1578;DHT22;57623;53.608;10.004;2022-09-01T18:32:49;19.30;99.90
1578;DHT22;57623;53.608;10.004;2022-09-01T18:35:56;19.20;99.90
1578;DHT22;57623;53.608;10.004;2022-09-01T18:38:50;19.10;99.90
1578;DHT22;57623;53.608;10.004;2022-09-01T18:42:02;19.00;99.90
1578;DHT22;57623;53.608;10.004;2022-09-01T18:44:57;19.00;99.90
1578;DHT22;57623;53.608;10.004;2022-09-01T18:47:57;18.90;99.90
1578;DHT22;57623;53.608;10.004;2022-09-01T18:50:59;18.80;99.90
1578;DHT22;57623;53.608;10.004;2022-09-01T18:53:51;18.80;99.90
1578;DHT22;57623;53.608;10.004;2022-09-01T18:56:45;18.70;99.90
1578;DHT22;57623;53.608;10.004;2022-09-01T18:59:59;18.60;99.90
1578;DHT22;57623;53.608;10.004;2022-09-01T19:03:15;18.60;99.90
1578;DHT22;57623;53.608;10.004;2022-09-01T19:06:21;18.40;99.90
1578;DHT22;57623;53.608;10.004;2022-09-01T19:09:13;18.30;99.90
1578;DHT22;57623;53.608;10.004;2022-09-01T19:12:18;18.20;99.90
1578;DHT22;57623;53.608;10.004;2022-09-01T19:15:18;18.20;99.90
1578;DHT22;57623;53.608;10.004;2022-09-01T19:18:12;18.10;99.90
1578;DHT22;57623;53.608;10.004;2022-09-01T19:21:08;18.00;99.90
1578;DHT22;57623;53.608;10.004;2022-09-01T19:24:12;18.00;99.90
1578;DHT22;57623;53.608;10.004;2022-09-01T19:27:12;17.90;99.90
1578;DHT22;57623;53.608;10.004;2022-09-01T19:30:05;17.80;99.90
1578;DHT22;57623;53.608;10.004;2022-09-01T19:32:58;17.70;99.90
1578;DHT22;57623;53.608;10.004;2022-09-01T19:35:53;17.60;99.90